sensor_id;sensor_type;location;lat;lon;timestamp;temperature;humidity
47600;DHT22;33323;52.124;6.018;2023-06-01T00:00:09;11.40;99.90
47600;DHT22;33323;52.124;6.018;2023-06-01T00:02:39;11.30;99.90
47600;DHT22;33323;52.124;6.018;2023-06-01T00:05:08;11.20;99.90
47600;DHT22;33323;52.124;6.018;2023-06-01T00:07:35;11.20;99.90
47600;DHT22;33323;52.124;6.018;2023-06-01T00:10:02;11.20;99.90
47600;DHT22;33323;52.124;6.018;2023-06-01T00:12:29;11.10;99.90
47600;DHT22;33323;52.124;6.018;2023-06-01T00:14:56;11.20;99.90
47600;DHT22;33323;52.124;6.018;2023-06-01T00:17:24;11.20;99.90
47600;DHT22;33323;52.124;6.018;2023-06-01T00:19:51;11.20;99.90
47600;DHT22;33323;52.124;6.018;2023-06-01T00:22:19;11.20;99.90
47600;DHT22;33323;52.124;6.018;2023-06-01T00:24:47;11.20;99.90
47600;DHT22;33323;52.124;6.018;2023-06-01T00:27:14;11.20;99.90
47600;DHT22;33323;52.124;6.018;2023-06-01T00:29:41;11.10;99.90
47600;DHT22;33323;52.124;6.018;2023-06-01T00:32:08;11.10;99.90
47600;DHT22;33323;52.124;6.018;2023-06-01T00:34:35;11.10;99.90
47600;DHT22;33323;52.124;6.018;2023-06-01T00:37:02;11.10;99.90
47600;DHT22;33323;52.124;6.018;2023-06-01T00:39:29;11.10;99.90
47600;DHT22;33323;52.124;6.018;2023-06-01T00:41:56;11.10;99.90
47600;DHT22;33323;52.124;6.018;2023-06-01T00:44:24;11.10;99.90
47600;DHT22;33323;52.124;6.018;2023-06-01T00:46:51;11.20;99.90
47600;DHT22;33323;52.124;6.018;2023-06-01T00:49:19;11.20;99.90
47600;DHT22;33323;52.124;6.018;2023-06-01T00:51:46;11.20;99.90
47600;DHT22;33323;52.124;6.018;2023-06-01T00:54:14;11.20;99.90
47600;DHT22;33323;52.124;6.018;2023-06-01T00:56:41;11.20;99.90
47600;DHT22;33323;52.124;6.018;2023-06-01T00:59:08;11.30;99.90
47600;DHT22;33323;52.124;6.018;2023-06-01T01:01:36;11.20;99.90
47600;DHT22;33323;52.124;6.018;2023-06-01T01:04:03;11.20;99.90
47600;DHT22;33323;52.124;6.018;2023-06-01T01:06:53;11.20;99.90
47600;DHT22;33323;52.124;6.018;2023-06-01T01:09:44;11.20;99.90
47600;DHT22;33323;52.124;6.018;2023-06-01T01:12:45;11.20;99.90
47600;DHT22;33323;52.124;6.018;2023-06-01T01:15:23;11.20;99.90
47600;DHT22;33323;52.124;6.018;2023-06-01T01:17:59;11.20;99.90
47600;DHT22;33323;52.124;6.018;2023-06-01T01:20:37;11.20;99.90
47600;DHT22;33323;52.124;6.018;2023-06-01T01:26:13;11.20;99.90
47600;DHT22;33323;52.124;6.018;2023-06-01T01:28:53;11.10;99.90
47600;DHT22;33323;52.124;6.018;2023-06-01T01:31:24;11.10;99.90
47600;DHT22;33323;52.124;6.018;2023-06-01T01:33:55;11.00;99.90
47600;DHT22;33323;52.124;6.018;2023-06-01T01:36:23;11.10;99.90
47600;DHT22;33323;52.124;6.018;2023-06-01T01:38:51;11.00;99.90
47600;DHT22;33323;52.124;6.018;2023-06-01T01:41:18;11.00;99.90
47600;DHT22;33323;52.124;6.018;2023-06-01T01:43:45;11.00;99.90
47600;DHT22;33323;52.124;6.018;2023-06-01T01:46:25;10.90;99.90
47600;DHT22;33323;52.124;6.018;2023-06-01T01:49:14;10.80;99.90
47600;DHT22;33323;52.124;6.018;2023-06-01T01:52:05;10.80;99.90
47600;DHT22;33323;52.124;6.018;2023-06-01T01:54:37;10.80;99.90
47600;DHT22;33323;52.124;6.018;2023-06-01T01:57:09;10.80;99.90
47600;DHT22;33323;52.124;6.018;2023-06-01T01:59:40;10.80;99.90
47600;DHT22;33323;52.124;6.018;2023-06-01T02:02:10;10.80;99.90
47600;DHT22;33323;52.124;6.018;2023-06-01T02:04:39;10.90;99.90
47600;DHT22;33323;52.124;6.018;2023-06-01T02:07:08;10.90;99.90
47600;DHT22;33323;52.124;6.018;2023-06-01T02:09:37;10.80;99.90
47600;DHT22;33323;52.124;6.018;2023-06-01T02:12:05;10.80;99.90
47600;DHT22;33323;52.124;6.018;2023-06-01T02:14:33;10.80;99.90
47600;DHT22;33323;52.124;6.018;2023-06-01T02:17:01;10.80;99.90
47600;DHT22;33323;52.124;6.018;2023-06-01T02:19:29;10.80;99.90
47600;DHT22;33323;52.124;6.018;2023-06-01T02:21:57;10.80;99.90
47600;DHT22;33323;52.124;6.018;2023-06-01T02:24:24;10.80;99.90
47600;DHT22;33323;52.124;6.018;2023-06-01T02:26:51;10.80;99.90
47600;DHT22;33323;52.124;6.018;2023-06-01T02:29:21;10.80;99.90
47600;DHT22;33323;52.124;6.018;2023-06-01T02:31:51;10.80;99.90
47600;DHT22;33323;52.124;6.018;2023-06-01T02:34:19;10.80;99.90
47600;DHT22;33323;52.124;6.018;2023-06-01T02:36:47;10.80;99.90
47600;DHT22;33323;52.124;6.018;2023-06-01T02:39:15;10.80;99.90
47600;DHT22;33323;52.124;6.018;2023-06-01T02:41:44;10.80;99.90
47600;DHT22;33323;52.124;6.018;2023-06-01T02:44:11;10.80;99.90
47600;DHT22;33323;52.124;6.018;2023-06-01T02:46:38;10.80;99.90
47600;DHT22;33323;52.124;6.018;2023-06-01T02:49:05;10.80;99.90
47600;DHT22;33323;52.124;6.018;2023-06-01T02:51:32;10.80;99.90
47600;DHT22;33323;52.124;6.018;2023-06-01T02:54:18;10.80;99.90
47600;DHT22;33323;52.124;6.018;2023-06-01T02:56:46;10.80;99.90
47600;DHT22;33323;52.124;6.018;2023-06-01T02:59:26;10.70;99.90
47600;DHT22;33323;52.124;6.018;2023-06-01T03:01:58;10.70;99.90
47600;DHT22;33323;52.124;6.018;2023-06-01T03:04:26;10.70;99.90
47600;DHT22;33323;52.124;6.018;2023-06-01T03:06:56;10.70;99.90
47600;DHT22;33323;52.124;6.018;2023-06-01T03:09:27;10.70;99.90
47600;DHT22;33323;52.124;6.018;2023-06-01T03:12:08;10.70;99.90
47600;DHT22;33323;52.124;6.018;2023-06-01T03:14:35;10.70;99.90
47600;DHT22;33323;52.124;6.018;2023-06-01T03:17:02;10.70;99.90
47600;DHT22;33323;52.124;6.018;2023-06-01T03:19:30;10.70;99.90
47600;DHT22;33323;52.124;6.018;2023-06-01T03:21:59;10.70;99.90
47600;DHT22;33323;52.124;6.018;2023-06-01T03:24:27;10.70;99.90
47600;DHT22;33323;52.124;6.018;2023-06-01T03:26:57;10.70;99.90
47600;DHT22;33323;52.124;6.018;2023-06-01T03:29:27;10.70;99.90
47600;DHT22;33323;52.124;6.018;2023-06-01T03:31:54;10.70;99.90
47600;DHT22;33323;52.124;6.018;2023-06-01T03:34:22;10.60;99.90
47600;DHT22;33323;52.124;6.018;2023-06-01T03:36:49;10.60;99.90
47600;DHT22;33323;52.124;6.018;2023-06-01T03:39:17;10.60;99.90
47600;DHT22;33323;52.124;6.018;2023-06-01T03:41:44;10.60;99.90
47600;DHT22;33323;52.124;6.018;2023-06-01T03:44:12;10.60;99.90
47600;DHT22;33323;52.124;6.018;2023-06-01T03:46:40;10.60;99.90
47600;DHT22;33323;52.124;6.018;2023-06-01T03:49:07;10.60;99.90
47600;DHT22;33323;52.124;6.018;2023-06-01T03:51:34;10.60;99.90
47600;DHT22;33323;52.124;6.018;2023-06-01T03:54:02;10.70;99.90
47600;DHT22;33323;52.124;6.018;2023-06-01T03:56:29;10.70;99.90
47600;DHT22;33323;52.124;6.018;2023-06-01T03:59:00;10.70;99.90
47600;DHT22;33323;52.124;6.018;2023-06-01T04:01:27;10.70;99.90
47600;DHT22;33323;52.124;6.018;2023-06-01T04:03:59;10.70;99.90
47600;DHT22;33323;52.124;6.018;2023-06-01T04:06:27;10.70;99.90
47600;DHT22;33323;52.124;6.018;2023-06-01T04:08:56;10.60;99.90
47600;DHT22;33323;52.124;6.018;2023-06-01T04:11:25;10.70;99.90
47600;DHT22;33323;52.124;6.018;2023-06-01T04:13:53;10.70;99.90
47600;DHT22;33323;52.124;6.018;2023-06-01T04:16:20;10.60;99.90
47600;DHT22;33323;52.124;6.018;2023-06-01T04:18:47;10.70;99.90
47600;DHT22;33323;52.124;6.018;2023-06-01T04:21:20;10.60;99.90
47600;DHT22;33323;52.124;6.018;2023-06-01T04:23:50;10.60;99.90
47600;DHT22;33323;52.124;6.018;2023-06-01T04:26:19;10.70;99.90
47600;DHT22;33323;52.124;6.018;2023-06-01T04:28:47;10.70;99.90
47600;DHT22;33323;52.124;6.018;2023-06-01T04:31:16;10.70;99.90
47600;DHT22;33323;52.124;6.018;2023-06-01T04:33:47;10.70;99.90
47600;DHT22;33323;52.124;6.018;2023-06-01T04:36:24;10.80;99.90
47600;DHT22;33323;52.124;6.018;2023-06-01T04:38:57;10.80;99.90
47600;DHT22;33323;52.124;6.018;2023-06-01T04:41:25;10.80;99.90
47600;DHT22;33323;52.124;6.018;2023-06-01T04:43:52;10.80;99.90
47600;DHT22;33323;52.124;6.018;2023-06-01T04:46:24;10.70;99.90
47600;DHT22;33323;52.124;6.018;2023-06-01T04:48:59;10.70;99.90
47600;DHT22;33323;52.124;6.018;2023-06-01T04:51:28;10.70;99.90
47600;DHT22;33323;52.124;6.018;2023-06-01T04:53:56;10.70;99.90
47600;DHT22;33323;52.124;6.018;2023-06-01T04:56:24;10.70;99.90
47600;DHT22;33323;52.124;6.018;2023-06-01T04:58:54;10.80;99.90
47600;DHT22;33323;52.124;6.018;2023-06-01T05:01:24;10.90;99.90
47600;DHT22;33323;52.124;6.018;2023-06-01T05:03:53;10.90;99.90
47600;DHT22;33323;52.124;6.018;2023-06-01T05:06:23;11.00;99.90
47600;DHT22;33323;52.124;6.018;2023-06-01T05:08:51;11.00;99.90
47600;DHT22;33323;52.124;6.018;2023-06-01T05:11:18;11.00;99.90
47600;DHT22;33323;52.124;6.018;2023-06-01T05:13:45;10.90;99.90
47600;DHT22;33323;52.124;6.018;2023-06-01T05:16:13;10.90;99.90
47600;DHT22;33323;52.124;6.018;2023-06-01T05:18:40;11.00;99.90
47600;DHT22;33323;52.124;6.018;2023-06-01T05:21:08;10.90;99.90
47600;DHT22;33323;52.124;6.018;2023-06-01T05:23:35;10.90;99.90
47600;DHT22;33323;52.124;6.018;2023-06-01T05:26:02;10.90;99.90
47600;DHT22;33323;52.124;6.018;2023-06-01T05:28:33;10.90;99.90
47600;DHT22;33323;52.124;6.018;2023-06-01T05:34:00;10.90;99.90
47600;DHT22;33323;52.124;6.018;2023-06-01T05:36:29;11.00;99.90
47600;DHT22;33323;52.124;6.018;2023-06-01T05:38:59;11.00;99.90
47600;DHT22;33323;52.124;6.018;2023-06-01T05:41:26;11.10;99.90
47600;DHT22;33323;52.124;6.018;2023-06-01T05:43:54;11.20;99.90
47600;DHT22;33323;52.124;6.018;2023-06-01T05:46:21;11.30;99.90
47600;DHT22;33323;52.124;6.018;2023-06-01T05:48:49;11.40;99.90
47600;DHT22;33323;52.124;6.018;2023-06-01T05:51:17;11.40;99.90
47600;DHT22;33323;52.124;6.018;2023-06-01T05:53:44;11.50;99.90
47600;DHT22;33323;52.124;6.018;2023-06-01T05:56:12;11.50;99.90
47600;DHT22;33323;52.124;6.018;2023-06-01T05:58:39;11.60;99.90
47600;DHT22;33323;52.124;6.018;2023-06-01T06:01:27;11.60;99.90
47600;DHT22;33323;52.124;6.018;2023-06-01T06:03:55;11.50;99.90
47600;DHT22;33323;52.124;6.018;2023-06-01T06:06:25;11.50;99.90
47600;DHT22;33323;52.124;6.018;2023-06-01T06:08:52;11.50;99.90
47600;DHT22;33323;52.124;6.018;2023-06-01T06:11:19;11.40;99.90
47600;DHT22;33323;52.124;6.018;2023-06-01T06:13:49;11.50;99.90
47600;DHT22;33323;52.124;6.018;2023-06-01T06:16:18;11.50;99.90
47600;DHT22;33323;52.124;6.018;2023-06-01T06:18:45;11.50;99.90
47600;DHT22;33323;52.124;6.018;2023-06-01T06:21:13;11.50;99.90
47600;DHT22;33323;52.124;6.018;2023-06-01T06:23:43;11.70;99.90
47600;DHT22;33323;52.124;6.018;2023-06-01T06:26:11;11.70;99.90
47600;DHT22;33323;52.124;6.018;2023-06-01T06:28:38;11.70;99.90
47600;DHT22;33323;52.124;6.018;2023-06-01T06:31:05;11.80;99.90
47600;DHT22;33323;52.124;6.018;2023-06-01T06:33:32;11.90;99.90
47600;DHT22;33323;52.124;6.018;2023-06-01T06:35:59;12.00;99.90
47600;DHT22;33323;52.124;6.018;2023-06-01T06:38:26;11.90;99.90
47600;DHT22;33323;52.124;6.018;2023-06-01T06:40:53;11.90;99.90
47600;DHT22;33323;52.124;6.018;2023-06-01T06:43:23;12.00;99.90
47600;DHT22;33323;52.124;6.018;2023-06-01T06:45:51;12.10;99.90
47600;DHT22;33323;52.124;6.018;2023-06-01T06:48:18;12.10;99.90
47600;DHT22;33323;52.124;6.018;2023-06-01T06:50:45;12.10;99.90
47600;DHT22;33323;52.124;6.018;2023-06-01T06:53:12;12.00;99.90
47600;DHT22;33323;52.124;6.018;2023-06-01T06:55:39;12.10;99.90
47600;DHT22;33323;52.124;6.018;2023-06-01T06:58:06;12.20;99.90
47600;DHT22;33323;52.124;6.018;2023-06-01T07:00:33;12.40;99.90
47600;DHT22;33323;52.124;6.018;2023-06-01T07:03:00;12.60;99.90
47600;DHT22;33323;52.124;6.018;2023-06-01T07:05:27;12.60;99.90
47600;DHT22;33323;52.124;6.018;2023-06-01T07:07:54;12.60;99.90
47600;DHT22;33323;52.124;6.018;2023-06-01T07:10:24;12.60;99.90
47600;DHT22;33323;52.124;6.018;2023-06-01T07:12:52;12.60;99.90
47600;DHT22;33323;52.124;6.018;2023-06-01T07:15:19;12.60;99.90
47600;DHT22;33323;52.124;6.018;2023-06-01T07:17:46;12.60;99.90
47600;DHT22;33323;52.124;6.018;2023-06-01T07:20:13;12.70;99.90
47600;DHT22;33323;52.124;6.018;2023-06-01T07:22:40;12.80;99.90
47600;DHT22;33323;52.124;6.018;2023-06-01T07:25:09;12.90;99.90
47600;DHT22;33323;52.124;6.018;2023-06-01T07:27:36;13.30;99.90
47600;DHT22;33323;52.124;6.018;2023-06-01T07:30:04;13.50;99.90
47600;DHT22;33323;52.124;6.018;2023-06-01T07:32:33;13.70;99.90
47600;DHT22;33323;52.124;6.018;2023-06-01T07:35:01;13.70;99.90
47600;DHT22;33323;52.124;6.018;2023-06-01T07:37:28;13.70;99.90
47600;DHT22;33323;52.124;6.018;2023-06-01T07:39:55;13.60;99.90
47600;DHT22;33323;52.124;6.018;2023-06-01T07:42:22;13.60;99.90
47600;DHT22;33323;52.124;6.018;2023-06-01T07:44:49;13.50;99.90
47600;DHT22;33323;52.124;6.018;2023-06-01T07:47:17;13.60;99.90
47600;DHT22;33323;52.124;6.018;2023-06-01T07:49:44;13.70;99.90
47600;DHT22;33323;52.124;6.018;2023-06-01T07:52:11;13.70;99.90
47600;DHT22;33323;52.124;6.018;2023-06-01T07:54:39;13.60;99.90
47600;DHT22;33323;52.124;6.018;2023-06-01T07:57:06;13.90;99.90
47600;DHT22;33323;52.124;6.018;2023-06-01T07:59:33;14.00;99.90
47600;DHT22;33323;52.124;6.018;2023-06-01T08:02:00;14.00;99.90
47600;DHT22;33323;52.124;6.018;2023-06-01T08:04:28;14.10;99.90
47600;DHT22;33323;52.124;6.018;2023-06-01T08:07:00;14.50;99.90
47600;DHT22;33323;52.124;6.018;2023-06-01T08:09:30;15.20;99.90
47600;DHT22;33323;52.124;6.018;2023-06-01T08:11:58;15.70;99.90
47600;DHT22;33323;52.124;6.018;2023-06-01T08:14:25;16.00;99.90
47600;DHT22;33323;52.124;6.018;2023-06-01T08:16:52;16.20;99.90
47600;DHT22;33323;52.124;6.018;2023-06-01T08:19:19;15.20;99.90
47600;DHT22;33323;52.124;6.018;2023-06-01T08:21:46;14.90;99.90
47600;DHT22;33323;52.124;6.018;2023-06-01T08:24:13;15.00;99.90
47600;DHT22;33323;52.124;6.018;2023-06-01T08:26:40;15.20;99.90
47600;DHT22;33323;52.124;6.018;2023-06-01T08:29:08;14.80;99.90
47600;DHT22;33323;52.124;6.018;2023-06-01T08:31:35;14.60;99.90
47600;DHT22;33323;52.124;6.018;2023-06-01T08:34:04;15.10;99.90
47600;DHT22;33323;52.124;6.018;2023-06-01T08:36:31;15.90;99.90
47600;DHT22;33323;52.124;6.018;2023-06-01T08:38:58;16.50;99.90
47600;DHT22;33323;52.124;6.018;2023-06-01T08:41:47;16.50;99.90
47600;DHT22;33323;52.124;6.018;2023-06-01T08:44:17;16.20;99.90
47600;DHT22;33323;52.124;6.018;2023-06-01T08:46:47;16.70;99.90
47600;DHT22;33323;52.124;6.018;2023-06-01T08:49:15;17.40;99.90
47600;DHT22;33323;52.124;6.018;2023-06-01T08:51:43;17.10;99.90
47600;DHT22;33323;52.124;6.018;2023-06-01T08:54:11;16.80;99.90
47600;DHT22;33323;52.124;6.018;2023-06-01T08:56:38;17.10;99.90
47600;DHT22;33323;52.124;6.018;2023-06-01T08:59:11;17.20;99.90
47600;DHT22;33323;52.124;6.018;2023-06-01T09:01:40;16.90;99.90
47600;DHT22;33323;52.124;6.018;2023-06-01T09:04:07;16.60;99.90
47600;DHT22;33323;52.124;6.018;2023-06-01T09:06:36;16.60;99.90
47600;DHT22;33323;52.124;6.018;2023-06-01T09:09:03;16.70;99.90
47600;DHT22;33323;52.124;6.018;2023-06-01T09:11:30;16.70;99.90
47600;DHT22;33323;52.124;6.018;2023-06-01T09:13:57;17.20;99.90
47600;DHT22;33323;52.124;6.018;2023-06-01T09:16:36;16.80;99.90
47600;DHT22;33323;52.124;6.018;2023-06-01T09:19:04;16.90;99.90
47600;DHT22;33323;52.124;6.018;2023-06-01T09:21:31;16.80;99.90
47600;DHT22;33323;52.124;6.018;2023-06-01T09:24:20;17.00;99.90
47600;DHT22;33323;52.124;6.018;2023-06-01T09:26:48;17.50;99.90
47600;DHT22;33323;52.124;6.018;2023-06-01T09:29:16;17.10;99.90
47600;DHT22;33323;52.124;6.018;2023-06-01T09:31:45;17.30;99.90
47600;DHT22;33323;52.124;6.018;2023-06-01T09:34:15;17.40;99.90
47600;DHT22;33323;52.124;6.018;2023-06-01T09:36:50;16.90;99.90
47600;DHT22;33323;52.124;6.018;2023-06-01T09:39:23;16.60;99.90
47600;DHT22;33323;52.124;6.018;2023-06-01T09:41:55;16.90;99.90
47600;DHT22;33323;52.124;6.018;2023-06-01T09:44:26;17.10;99.90
47600;DHT22;33323;52.124;6.018;2023-06-01T09:47:02;17.50;99.90
47600;DHT22;33323;52.124;6.018;2023-06-01T09:49:39;17.50;99.90
47600;DHT22;33323;52.124;6.018;2023-06-01T09:52:08;17.30;99.90
47600;DHT22;33323;52.124;6.018;2023-06-01T09:54:42;17.00;99.90
47600;DHT22;33323;52.124;6.018;2023-06-01T09:57:23;17.70;99.90
47600;DHT22;33323;52.124;6.018;2023-06-01T09:59:51;17.80;99.90
47600;DHT22;33323;52.124;6.018;2023-06-01T10:02:20;18.10;99.90
47600;DHT22;33323;52.124;6.018;2023-06-01T10:07:31;17.90;99.90
47600;DHT22;33323;52.124;6.018;2023-06-01T10:10:00;18.50;99.90
47600;DHT22;33323;52.124;6.018;2023-06-01T10:12:29;18.30;99.90
47600;DHT22;33323;52.124;6.018;2023-06-01T10:15:00;18.20;99.90
47600;DHT22;33323;52.124;6.018;2023-06-01T10:17:46;18.60;99.90
47600;DHT22;33323;52.124;6.018;2023-06-01T10:20:16;18.40;99.90
47600;DHT22;33323;52.124;6.018;2023-06-01T10:22:43;18.20;99.90
47600;DHT22;33323;52.124;6.018;2023-06-01T10:25:14;18.40;99.90
47600;DHT22;33323;52.124;6.018;2023-06-01T10:27:55;18.40;99.90
47600;DHT22;33323;52.124;6.018;2023-06-01T10:30:25;18.70;99.90
47600;DHT22;33323;52.124;6.018;2023-06-01T10:32:52;19.10;99.90
47600;DHT22;33323;52.124;6.018;2023-06-01T10:40:34;18.90;99.90
47600;DHT22;33323;52.124;6.018;2023-06-01T10:43:01;18.50;99.90
47600;DHT22;33323;52.124;6.018;2023-06-01T10:45:37;18.40;99.90
47600;DHT22;33323;52.124;6.018;2023-06-01T10:48:10;18.80;99.90
47600;DHT22;33323;52.124;6.018;2023-06-01T10:50:42;18.70;99.90
47600;DHT22;33323;52.124;6.018;2023-06-01T10:53:31;18.80;99.90
47600;DHT22;33323;52.124;6.018;2023-06-01T10:58:43;18.70;99.90
47600;DHT22;33323;52.124;6.018;2023-06-01T11:01:18;18.80;99.90
47600;DHT22;33323;52.124;6.018;2023-06-01T11:03:48;19.00;99.90
47600;DHT22;33323;52.124;6.018;2023-06-01T11:06:25;19.30;99.90
47600;DHT22;33323;52.124;6.018;2023-06-01T11:09:02;19.00;99.90
47600;DHT22;33323;52.124;6.018;2023-06-01T11:14:24;19.40;99.90
47600;DHT22;33323;52.124;6.018;2023-06-01T11:16:53;19.50;99.90
47600;DHT22;33323;52.124;6.018;2023-06-01T11:19:23;19.40;99.90
47600;DHT22;33323;52.124;6.018;2023-06-01T11:21:58;19.60;99.90
47600;DHT22;33323;52.124;6.018;2023-06-01T11:24:36;19.50;99.90
47600;DHT22;33323;52.124;6.018;2023-06-01T11:27:07;19.50;99.90
47600;DHT22;33323;52.124;6.018;2023-06-01T11:29:37;19.90;99.90
47600;DHT22;33323;52.124;6.018;2023-06-01T11:32:05;19.80;99.90
47600;DHT22;33323;52.124;6.018;2023-06-01T11:34:37;19.50;99.90
47600;DHT22;33323;52.124;6.018;2023-06-01T11:37:16;19.50;99.90
47600;DHT22;33323;52.124;6.018;2023-06-01T11:39:46;19.50;99.90
47600;DHT22;33323;52.124;6.018;2023-06-01T11:42:15;19.10;99.90
47600;DHT22;33323;52.124;6.018;2023-06-01T11:44:45;19.40;99.90
47600;DHT22;33323;52.124;6.018;2023-06-01T11:47:21;19.60;99.90
47600;DHT22;33323;52.124;6.018;2023-06-01T11:49:51;19.60;99.90
47600;DHT22;33323;52.124;6.018;2023-06-01T11:52:19;19.50;99.90
47600;DHT22;33323;52.124;6.018;2023-06-01T11:54:47;19.40;99.90
47600;DHT22;33323;52.124;6.018;2023-06-01T11:57:14;19.40;99.90
47600;DHT22;33323;52.124;6.018;2023-06-01T11:59:46;19.40;99.90
47600;DHT22;33323;52.124;6.018;2023-06-01T12:02:20;19.50;99.90
47600;DHT22;33323;52.124;6.018;2023-06-01T12:05:01;19.40;99.90
47600;DHT22;33323;52.124;6.018;2023-06-01T12:07:47;19.60;99.90
47600;DHT22;33323;52.124;6.018;2023-06-01T12:10:21;19.50;99.90
47600;DHT22;33323;52.124;6.018;2023-06-01T12:12:49;19.70;99.90
47600;DHT22;33323;52.124;6.018;2023-06-01T12:15:18;20.00;99.90
47600;DHT22;33323;52.124;6.018;2023-06-01T12:17:53;19.90;99.90
47600;DHT22;33323;52.124;6.018;2023-06-01T12:20:31;19.90;99.90
47600;DHT22;33323;52.124;6.018;2023-06-01T12:23:16;19.80;99.90
47600;DHT22;33323;52.124;6.018;2023-06-01T12:25:53;19.70;99.90
47600;DHT22;33323;52.124;6.018;2023-06-01T12:28:22;19.90;99.90
47600;DHT22;33323;52.124;6.018;2023-06-01T12:31:10;19.80;99.90
47600;DHT22;33323;52.124;6.018;2023-06-01T12:33:40;19.60;99.90
47600;DHT22;33323;52.124;6.018;2023-06-01T12:36:08;19.90;99.90
47600;DHT22;33323;52.124;6.018;2023-06-01T12:38:52;20.00;99.90
47600;DHT22;33323;52.124;6.018;2023-06-01T12:41:20;19.70;99.90
47600;DHT22;33323;52.124;6.018;2023-06-01T12:43:48;19.40;99.90
47600;DHT22;33323;52.124;6.018;2023-06-01T12:46:22;19.00;99.90
47600;DHT22;33323;52.124;6.018;2023-06-01T12:49:11;18.60;99.90
47600;DHT22;33323;52.124;6.018;2023-06-01T12:51:39;18.70;99.90
47600;DHT22;33323;52.124;6.018;2023-06-01T12:54:06;18.60;99.90
47600;DHT22;33323;52.124;6.018;2023-06-01T12:56:34;18.70;99.90
47600;DHT22;33323;52.124;6.018;2023-06-01T12:59:02;19.00;99.90
47600;DHT22;33323;52.124;6.018;2023-06-01T13:01:29;18.60;99.90
47600;DHT22;33323;52.124;6.018;2023-06-01T13:03:56;18.50;99.90
47600;DHT22;33323;52.124;6.018;2023-06-01T13:06:24;18.50;99.90
47600;DHT22;33323;52.124;6.018;2023-06-01T13:08:52;18.40;99.90
47600;DHT22;33323;52.124;6.018;2023-06-01T13:11:19;18.30;99.90
47600;DHT22;33323;52.124;6.018;2023-06-01T13:13:46;17.70;99.90
47600;DHT22;33323;52.124;6.018;2023-06-01T13:16:14;17.10;99.90
47600;DHT22;33323;52.124;6.018;2023-06-01T13:18:42;17.00;99.90
47600;DHT22;33323;52.124;6.018;2023-06-01T13:21:11;17.00;99.90
47600;DHT22;33323;52.124;6.018;2023-06-01T13:23:38;17.10;99.90
47600;DHT22;33323;52.124;6.018;2023-06-01T13:26:05;17.20;99.90
47600;DHT22;33323;52.124;6.018;2023-06-01T13:28:32;17.20;99.90
47600;DHT22;33323;52.124;6.018;2023-06-01T13:31:00;17.10;99.90
47600;DHT22;33323;52.124;6.018;2023-06-01T13:33:27;17.00;99.90
47600;DHT22;33323;52.124;6.018;2023-06-01T13:35:54;16.90;99.90
47600;DHT22;33323;52.124;6.018;2023-06-01T13:38:21;16.70;99.90
47600;DHT22;33323;52.124;6.018;2023-06-01T13:40:49;16.90;99.90
47600;DHT22;33323;52.124;6.018;2023-06-01T13:43:17;16.80;99.90
47600;DHT22;33323;52.124;6.018;2023-06-01T13:45:45;16.90;99.90
47600;DHT22;33323;52.124;6.018;2023-06-01T13:48:12;16.70;99.90
47600;DHT22;33323;52.124;6.018;2023-06-01T13:50:43;16.60;99.90
47600;DHT22;33323;52.124;6.018;2023-06-01T13:53:10;16.70;99.90
47600;DHT22;33323;52.124;6.018;2023-06-01T13:55:37;16.70;99.90
47600;DHT22;33323;52.124;6.018;2023-06-01T13:58:05;16.90;99.90
47600;DHT22;33323;52.124;6.018;2023-06-01T14:00:32;17.00;99.90
47600;DHT22;33323;52.124;6.018;2023-06-01T14:03:00;17.10;99.90
47600;DHT22;33323;52.124;6.018;2023-06-01T14:05:27;17.10;99.90
47600;DHT22;33323;52.124;6.018;2023-06-01T14:08:10;17.30;99.90
47600;DHT22;33323;52.124;6.018;2023-06-01T14:10:37;17.30;99.90
47600;DHT22;33323;52.124;6.018;2023-06-01T14:13:05;17.30;99.90
47600;DHT22;33323;52.124;6.018;2023-06-01T14:15:32;17.00;99.90
47600;DHT22;33323;52.124;6.018;2023-06-01T14:17:59;17.10;99.90
47600;DHT22;33323;52.124;6.018;2023-06-01T14:20:26;17.10;99.90
47600;DHT22;33323;52.124;6.018;2023-06-01T14:22:53;17.00;99.90
47600;DHT22;33323;52.124;6.018;2023-06-01T14:25:20;16.80;99.90
47600;DHT22;33323;52.124;6.018;2023-06-01T14:27:47;16.70;99.90
47600;DHT22;33323;52.124;6.018;2023-06-01T14:30:14;16.70;99.90
47600;DHT22;33323;52.124;6.018;2023-06-01T14:32:41;16.90;99.90
47600;DHT22;33323;52.124;6.018;2023-06-01T14:35:08;17.00;99.90
47600;DHT22;33323;52.124;6.018;2023-06-01T14:37:36;17.00;99.90
47600;DHT22;33323;52.124;6.018;2023-06-01T14:40:15;17.00;99.90
47600;DHT22;33323;52.124;6.018;2023-06-01T14:42:42;16.90;99.90
47600;DHT22;33323;52.124;6.018;2023-06-01T14:45:09;16.90;99.90
47600;DHT22;33323;52.124;6.018;2023-06-01T14:47:38;17.00;99.90
47600;DHT22;33323;52.124;6.018;2023-06-01T14:50:09;17.00;99.90
47600;DHT22;33323;52.124;6.018;2023-06-01T14:52:36;16.90;99.90
47600;DHT22;33323;52.124;6.018;2023-06-01T14:55:03;16.90;99.90
47600;DHT22;33323;52.124;6.018;2023-06-01T14:57:30;16.90;99.90
47600;DHT22;33323;52.124;6.018;2023-06-01T14:59:58;16.80;99.90
47600;DHT22;33323;52.124;6.018;2023-06-01T15:02:32;16.90;99.90
47600;DHT22;33323;52.124;6.018;2023-06-01T15:04:59;17.00;99.90
47600;DHT22;33323;52.124;6.018;2023-06-01T15:07:26;17.20;99.90
47600;DHT22;33323;52.124;6.018;2023-06-01T15:09:53;17.30;99.90
47600;DHT22;33323;52.124;6.018;2023-06-01T15:12:21;17.50;99.90
47600;DHT22;33323;52.124;6.018;2023-06-01T15:14:48;17.50;99.90
47600;DHT22;33323;52.124;6.018;2023-06-01T15:17:17;17.20;99.90
47600;DHT22;33323;52.124;6.018;2023-06-01T15:19:44;17.30;99.90
47600;DHT22;33323;52.124;6.018;2023-06-01T15:22:13;17.40;99.90
47600;DHT22;33323;52.124;6.018;2023-06-01T15:24:40;17.30;99.90
47600;DHT22;33323;52.124;6.018;2023-06-01T15:27:07;17.20;99.90
47600;DHT22;33323;52.124;6.018;2023-06-01T15:29:35;17.10;99.90
47600;DHT22;33323;52.124;6.018;2023-06-01T15:32:03;16.80;99.90
47600;DHT22;33323;52.124;6.018;2023-06-01T15:34:30;16.80;99.90
47600;DHT22;33323;52.124;6.018;2023-06-01T15:36:57;16.90;99.90
47600;DHT22;33323;52.124;6.018;2023-06-01T15:39:24;16.80;99.90
47600;DHT22;33323;52.124;6.018;2023-06-01T15:41:51;16.90;99.90
47600;DHT22;33323;52.124;6.018;2023-06-01T15:44:21;17.00;99.90
47600;DHT22;33323;52.124;6.018;2023-06-01T15:46:48;16.90;99.90
47600;DHT22;33323;52.124;6.018;2023-06-01T15:49:15;16.80;99.90
47600;DHT22;33323;52.124;6.018;2023-06-01T15:51:42;16.90;99.90
47600;DHT22;33323;52.124;6.018;2023-06-01T15:54:09;16.80;99.90
47600;DHT22;33323;52.124;6.018;2023-06-01T15:56:36;16.90;99.90
47600;DHT22;33323;52.124;6.018;2023-06-01T15:59:03;16.80;99.90
47600;DHT22;33323;52.124;6.018;2023-06-01T16:01:30;16.80;99.90
47600;DHT22;33323;52.124;6.018;2023-06-01T16:03:58;16.90;99.90